createdAt,value
2019-01-14T00:02:26.650Z,92.90
2019-01-14T00:05:20.573Z,92.70
2019-01-14T00:08:14.486Z,93.20
2019-01-14T00:10:59.815Z,92.70
2019-01-14T00:13:53.446Z,92.50
2019-01-14T00:16:38.690Z,92.20
2019-01-14T00:19:32.248Z,92.20
2019-01-14T00:22:17.781Z,92.30
2019-01-14T00:25:03.056Z,92.30
2019-01-14T00:27:48.049Z,92.10
2019-01-14T00:30:33.211Z,92.50
2019-01-14T00:33:26.741Z,92.90
2019-01-14T00:36:17.489Z,92.70
2019-01-14T00:38:58.816Z,92.40
2019-01-14T00:41:52.544Z,92.50
2019-01-14T00:44:37.981Z,92.40
2019-01-14T00:47:31.097Z,91.90
2019-01-14T00:50:16.257Z,91.70
2019-01-14T00:53:01.321Z,91.80
2019-01-14T00:55:55.565Z,91.20
2019-01-14T00:58:48.969Z,91.20
2019-01-14T01:01:33.746Z,90.70
2019-01-14T01:04:18.583Z,90.10
2019-01-14T01:07:03.918Z,89.10
2019-01-14T01:09:57.709Z,89.20
2019-01-14T01:12:42.640Z,89.70
2019-01-14T01:15:36.968Z,90.10
2019-01-14T01:18:30.641Z,90.20
2019-01-14T01:21:15.312Z,90.40
2019-01-14T01:24:01.011Z,90.60
2019-01-14T01:26:46.313Z,90.20
2019-01-14T01:29:30.993Z,90.10
2019-01-14T01:32:16.193Z,89.40
2019-01-14T01:35:00.744Z,89.50
2019-01-14T01:37:45.837Z,89.30
2019-01-14T01:40:30.930Z,90.00
2019-01-14T01:43:24.917Z,88.50
2019-01-14T01:46:19.086Z,89.50
2019-01-14T01:49:13.505Z,87.80
2019-01-14T01:52:07.458Z,87.60
2019-01-14T01:55:01.266Z,86.80
2019-01-14T01:57:54.949Z,87.40
2019-01-14T02:00:40.285Z,86.20
2019-01-14T02:03:34.169Z,86.20
2019-01-14T02:06:18.831Z,85.60
2019-01-14T02:09:04.693Z,85.30
2019-01-14T02:11:49.305Z,84.00
2019-01-14T02:14:34.470Z,84.80
2019-01-14T02:17:19.640Z,84.90
2019-01-14T02:20:04.701Z,85.30
2019-01-14T02:23:00.394Z,85.00
2019-01-14T02:25:54.949Z,84.30
2019-01-14T02:28:48.962Z,83.70
2019-01-14T02:31:42.607Z,83.90
2019-01-14T02:34:36.630Z,83.30
2019-01-14T02:37:21.467Z,83.50
2019-01-14T02:40:06.735Z,84.50
2019-01-14T02:43:00.458Z,84.20
2019-01-14T02:45:54.269Z,84.80
2019-01-14T02:48:39.296Z,83.90
2019-01-14T02:51:23.977Z,84.20
2019-01-14T02:54:08.989Z,84.10
2019-01-14T02:56:54.027Z,84.30
2019-01-14T02:59:47.837Z,83.20
2019-01-14T03:02:42.117Z,83.10
2019-01-14T03:05:37.947Z,83.20
2019-01-14T03:08:23.292Z,83.70
2019-01-14T03:11:16.881Z,83.50
2019-01-14T03:14:01.672Z,83.90
2019-01-14T03:16:46.589Z,82.60
2019-01-14T03:19:40.289Z,83.30
2019-01-14T03:22:25.496Z,82.00
2019-01-14T03:25:19.118Z,82.60
2019-01-14T03:28:04.197Z,82.10
2019-01-14T03:30:48.878Z,82.00
2019-01-14T03:33:33.877Z,81.30
2019-01-14T03:36:18.962Z,81.30
2019-01-14T03:39:12.539Z,81.90
2019-01-14T03:41:57.912Z,82.10
2019-01-14T03:44:51.822Z,81.30
2019-01-14T03:47:48.165Z,80.90
2019-01-14T03:50:33.959Z,81.50
2019-01-14T03:53:27.638Z,80.90
2019-01-14T03:56:12.685Z,79.80
2019-01-14T03:59:06.786Z,79.30
2019-01-14T04:01:51.398Z,79.80
2019-01-14T04:04:36.545Z,79.20
2019-01-14T04:07:30.185Z,79.60
2019-01-14T04:10:14.972Z,78.60
2019-01-14T04:12:59.989Z,78.60
2019-01-14T04:15:45.043Z,78.80
2019-01-14T04:18:39.170Z,78.80
2019-01-14T04:21:33.051Z,79.60
2019-01-14T04:24:17.917Z,79.50
2019-01-14T04:27:02.770Z,79.60
2019-01-14T04:29:56.706Z,79.60
2019-01-14T04:32:42.104Z,79.20
2019-01-14T04:35:35.942Z,80.20
2019-01-14T04:38:29.781Z,80.30
2019-01-14T04:41:15.128Z,80.00
2019-01-14T04:44:08.239Z,79.50
2019-01-14T04:46:52.925Z,81.00
2019-01-14T04:49:37.442Z,80.70
2019-01-14T04:52:22.551Z,80.30
2019-01-14T04:55:07.678Z,80.40
2019-01-14T04:57:52.613Z,80.40
2019-01-14T05:00:37.782Z,79.90
2019-01-14T05:03:31.633Z,80.70
2019-01-14T05:06:26.140Z,80.10
2019-01-14T05:09:20.080Z,79.50
2019-01-14T05:12:13.938Z,79.70
2019-01-14T05:15:07.874Z,80.30
2019-01-14T05:17:53.161Z,79.50
2019-01-14T05:20:46.781Z,78.90
2019-01-14T05:23:41.897Z,79.20
2019-01-14T05:26:27.161Z,78.20
2019-01-14T05:29:12.494Z,78.80
2019-01-14T05:31:56.018Z,79.00
2019-01-14T05:34:48.180Z,80.20
2019-01-14T05:38:01.501Z,78.50
2019-01-14T05:40:55.157Z,77.90
2019-01-14T05:43:39.777Z,77.50
2019-01-14T05:46:24.709Z,78.30
2019-01-14T05:49:09.577Z,78.40
2019-01-14T05:51:55.121Z,77.40
2019-01-14T05:54:40.243Z,77.20
2019-01-14T05:57:25.825Z,78.10
2019-01-14T06:00:19.672Z,77.80
2019-01-14T06:03:04.591Z,78.80
2019-01-14T06:05:49.525Z,79.10
2019-01-14T06:08:43.395Z,79.50
2019-01-14T06:11:27.953Z,79.30
2019-01-14T06:14:13.197Z,79.80
2019-01-14T06:17:07.523Z,78.80
2019-01-14T06:20:01.481Z,79.00
2019-01-14T06:22:55.258Z,79.50
2019-01-14T06:25:39.921Z,79.20
2019-01-14T06:28:24.653Z,79.80
2019-01-14T06:31:09.505Z,80.50
2019-01-14T06:33:54.357Z,80.60
2019-01-14T06:36:39.485Z,81.10
2019-01-14T06:39:24.791Z,81.30
2019-01-14T06:42:18.173Z,81.10
2019-01-14T06:45:03.361Z,81.30
2019-01-14T06:47:57.156Z,81.80
2019-01-14T06:50:42.144Z,81.50
2019-01-14T06:53:35.965Z,81.00
2019-01-14T06:56:21.833Z,80.40
2019-01-14T06:59:06.858Z,80.70
2019-01-14T07:01:52.093Z,80.70
2019-01-14T07:04:36.937Z,80.10
2019-01-14T07:07:31.527Z,80.60
2019-01-14T07:10:24.962Z,80.40
2019-01-14T07:13:10.158Z,80.40
2019-01-14T07:16:03.894Z,80.40
2019-01-14T07:18:48.914Z,80.10
2019-01-14T07:21:43.190Z,80.30
2019-01-14T07:24:36.838Z,80.60
2019-01-14T07:27:22.006Z,79.20
2019-01-14T07:30:16.095Z,79.50
2019-01-14T07:33:09.665Z,78.90
2019-01-14T07:35:54.230Z,79.30
2019-01-14T07:38:38.980Z,79.50
2019-01-14T07:41:24.159Z,79.50
2019-01-14T07:44:09.805Z,79.10
2019-01-14T07:47:03.414Z,79.10
2019-01-14T07:49:57.891Z,79.50
2019-01-14T07:52:50.459Z,79.50
2019-01-14T07:55:35.726Z,79.70
2019-01-14T07:58:20.948Z,79.60
2019-01-14T08:01:06.306Z,79.90
2019-01-14T08:03:59.582Z,80.30
2019-01-14T08:06:44.620Z,80.10
2019-01-14T08:09:29.249Z,80.00
2019-01-14T08:12:14.314Z,80.20
2019-01-14T08:14:59.789Z,80.20
2019-01-14T08:17:53.755Z,80.70
2019-01-14T08:20:47.685Z,80.80
2019-01-14T08:23:41.966Z,80.50
2019-01-14T08:26:35.885Z,80.80
2019-01-14T08:29:29.690Z,80.00
2019-01-14T08:32:14.681Z,78.50
2019-01-14T08:35:08.717Z,78.90
2019-01-14T08:38:05.455Z,78.80
2019-01-14T08:40:50.332Z,79.00
2019-01-14T08:43:38.104Z,79.40
2019-01-14T08:46:23.518Z,79.00
2019-01-14T08:49:08.088Z,78.60
2019-01-14T08:51:52.802Z,77.70
2019-01-14T08:54:37.597Z,77.90
2019-01-14T08:57:22.386Z,77.70
2019-01-14T09:00:07.237Z,77.80
2019-01-14T09:02:52.236Z,78.10
2019-01-14T09:05:37.642Z,77.40
2019-01-14T09:08:31.444Z,77.20
2019-01-14T09:11:25.958Z,77.10
2019-01-14T09:14:10.911Z,77.80
2019-01-14T09:16:55.519Z,77.40
2019-01-14T09:19:41.139Z,77.10
2019-01-14T09:22:26.537Z,76.60
2019-01-14T09:25:20.421Z,77.00
2019-01-14T09:28:20.338Z,76.60
2019-01-14T09:31:14.399Z,77.20
2019-01-14T09:34:00.013Z,77.80
2019-01-14T09:36:45.026Z,77.70
2019-01-14T09:39:30.298Z,77.80
2019-01-14T09:42:16.000Z,77.20
2019-01-14T09:45:01.000Z,76.90
2019-01-14T09:47:46.735Z,77.20
2019-01-14T09:50:44.790Z,77.20
2019-01-14T09:53:30.133Z,77.90
2019-01-14T09:56:15.348Z,77.50
2019-01-14T09:59:08.907Z,77.40
2019-01-14T10:01:54.554Z,78.40
2019-01-14T10:04:40.174Z,79.00
2019-01-14T10:07:25.664Z,79.50
2019-01-14T10:10:19.254Z,79.60
2019-01-14T10:13:14.151Z,79.30
2019-01-14T10:15:59.042Z,79.30
2019-01-14T10:18:43.491Z,78.80
2019-01-14T10:21:36.734Z,77.80
2019-01-14T10:24:21.540Z,78.60
2019-01-14T10:27:06.557Z,78.50
2019-01-14T10:29:52.141Z,77.70
2019-01-14T10:32:37.041Z,77.10
2019-01-14T10:35:22.283Z,77.10
2019-01-14T10:38:07.679Z,77.10
2019-01-14T10:41:01.599Z,77.20
2019-01-14T10:43:55.557Z,76.40
2019-01-14T10:46:40.606Z,76.40
2019-01-14T10:49:34.555Z,75.50
2019-01-14T10:52:19.654Z,75.50
2019-01-14T10:55:14.040Z,77.10
2019-01-14T10:57:59.036Z,76.90
2019-01-14T11:00:44.295Z,77.40
2019-01-14T11:03:30.771Z,77.00
2019-01-14T11:06:16.350Z,77.40
2019-01-14T11:09:10.539Z,76.70
2019-01-14T11:11:55.909Z,77.60
2019-01-14T11:14:41.151Z,77.10
2019-01-14T11:17:25.819Z,78.40
2019-01-14T11:20:11.142Z,79.30
2019-01-14T11:23:04.962Z,79.70
2019-01-14T11:25:59.363Z,79.40
2019-01-14T11:28:45.334Z,80.00
2019-01-14T11:31:40.393Z,78.90
2019-01-14T11:34:25.844Z,78.70
2019-01-14T11:37:11.146Z,79.10
2019-01-14T11:40:09.937Z,78.70
2019-01-14T11:42:55.318Z,78.30
2019-01-14T11:45:50.499Z,77.90
2019-01-14T11:48:45.786Z,78.40
2019-01-14T11:51:31.378Z,77.80
2019-01-14T11:54:17.195Z,76.90
2019-01-14T11:57:03.064Z,76.30
2019-01-14T11:59:48.636Z,76.40
2019-01-14T12:02:42.892Z,75.60
2019-01-14T12:05:27.813Z,75.20
2019-01-14T12:08:21.696Z,75.80
2019-01-14T12:11:06.727Z,74.70
2019-01-14T12:14:04.178Z,75.60
2019-01-14T12:16:57.801Z,75.70
2019-01-14T12:19:43.067Z,75.30
2019-01-14T12:22:36.784Z,75.30
2019-01-14T12:25:21.458Z,75.00
2019-01-14T12:28:06.510Z,74.50
2019-01-14T12:31:00.293Z,73.80
2019-01-14T12:33:45.097Z,74.20
2019-01-14T12:36:30.641Z,73.50
2019-01-14T12:39:26.364Z,73.80
2019-01-14T12:42:11.201Z,73.60
2019-01-14T12:44:56.320Z,74.10
2019-01-14T12:47:41.643Z,74.60
2019-01-14T12:50:26.805Z,74.00
2019-01-14T12:53:21.007Z,74.40
2019-01-14T12:56:14.909Z,73.10
2019-01-14T12:59:08.850Z,74.70
2019-01-14T13:01:54.155Z,74.50
2019-01-14T13:04:50.578Z,73.40
2019-01-14T13:07:36.062Z,74.10
2019-01-14T13:10:30.014Z,73.90
2019-01-14T13:13:26.948Z,74.10
2019-01-14T13:16:21.282Z,76.80
2019-01-14T13:19:21.096Z,79.30
2019-01-14T13:22:14.946Z,79.90
2019-01-14T13:25:02.874Z,81.70
2019-01-14T13:27:48.223Z,82.90
2019-01-14T13:30:41.823Z,83.30
2019-01-14T13:33:26.415Z,84.20
2019-01-14T13:36:12.257Z,84.10
2019-01-14T13:38:57.327Z,83.60
2019-01-14T13:41:42.562Z,83.90
2019-01-14T13:44:27.280Z,84.70
2019-01-14T13:47:12.192Z,85.60
2019-01-14T13:49:57.590Z,85.10
2019-01-14T13:52:51.318Z,86.90
2019-01-14T13:55:36.125Z,88.30
2019-01-14T13:58:20.736Z,86.50
2019-01-14T14:01:05.525Z,86.70
2019-01-14T14:03:50.814Z,86.20
2019-01-14T14:06:44.830Z,86.40
2019-01-14T14:09:41.266Z,86.20
2019-01-14T14:12:34.586Z,86.00
2019-01-14T14:15:28.474Z,86.10
2019-01-14T14:18:13.330Z,85.30
2019-01-14T14:21:07.435Z,85.00
2019-01-14T14:24:01.519Z,84.80
2019-01-14T14:26:55.852Z,85.40
2019-01-14T14:29:50.059Z,85.70
2019-01-14T14:32:43.914Z,85.10
2019-01-14T14:35:37.846Z,85.10
2019-01-14T14:38:23.097Z,84.70
2019-01-14T14:41:16.902Z,84.20
2019-01-14T14:44:11.483Z,84.60
2019-01-14T14:46:56.589Z,82.90
2019-01-14T14:49:41.277Z,82.90
2019-01-14T14:52:25.796Z,82.60
2019-01-14T14:55:19.417Z,82.90
2019-01-14T14:58:04.510Z,82.70
2019-01-14T15:00:58.025Z,83.20
2019-01-14T15:03:43.113Z,83.90
2019-01-14T15:06:28.061Z,84.00
2019-01-14T15:09:21.478Z,84.00
2019-01-14T15:12:06.029Z,83.60
2019-01-14T15:14:51.533Z,83.90
2019-01-14T15:17:36.607Z,84.00
2019-01-14T15:20:30.622Z,83.30
2019-01-14T15:23:25.061Z,83.90
2019-01-14T15:26:11.662Z,84.70
2019-01-14T15:28:57.209Z,84.30
2019-01-14T15:31:42.161Z,84.70
2019-01-14T15:34:36.031Z,84.90
2019-01-14T15:37:21.222Z,84.60
2019-01-14T15:40:14.571Z,84.70
2019-01-14T15:42:59.274Z,84.50
2019-01-14T15:45:44.173Z,84.60
2019-01-14T15:48:28.846Z,84.70
2019-01-14T15:51:13.513Z,85.00
2019-01-14T15:53:59.197Z,84.20
2019-01-14T15:56:53.129Z,84.70
2019-01-14T15:59:37.897Z,84.80
2019-01-14T16:02:22.303Z,83.90
2019-01-14T16:05:07.217Z,83.90
2019-01-14T16:07:52.262Z,84.60
2019-01-14T16:10:37.605Z,84.20
2019-01-14T16:13:31.725Z,84.70
2019-01-14T16:16:26.013Z,84.70
2019-01-14T16:19:10.533Z,84.20
2019-01-14T16:22:05.054Z,83.80
2019-01-14T16:24:49.990Z,83.70
2019-01-14T16:27:35.101Z,83.50
2019-01-14T16:30:20.095Z,83.50
2019-01-14T16:33:04.937Z,83.60
2019-01-14T16:35:49.273Z,83.50
2019-01-14T16:38:33.680Z,84.20
2019-01-14T16:41:29.382Z,85.20
2019-01-14T16:44:14.465Z,84.50
2019-01-14T16:46:59.750Z,84.40
2019-01-14T16:49:44.971Z,83.80
2019-01-14T16:52:41.594Z,84.00
2019-01-14T16:55:48.362Z,84.40
2019-01-14T16:58:43.422Z,84.20
2019-01-14T17:01:28.749Z,83.00
2019-01-14T17:04:14.223Z,82.10
2019-01-14T17:07:07.989Z,82.60
2019-01-14T17:09:53.177Z,82.40
2019-01-14T17:12:47.521Z,83.10
2019-01-14T17:15:34.494Z,83.00
2019-01-14T17:18:19.951Z,83.70
2019-01-14T17:21:13.941Z,83.30
2019-01-14T17:24:07.797Z,82.40
2019-01-14T17:26:52.878Z,82.90
2019-01-14T17:29:47.700Z,83.60
2019-01-14T17:32:32.468Z,83.60
2019-01-14T17:35:17.402Z,83.10
2019-01-14T17:38:01.965Z,82.40
2019-01-14T17:40:47.722Z,83.70
2019-01-14T17:43:32.783Z,82.20
2019-01-14T17:46:27.933Z,81.00
2019-01-14T17:49:12.919Z,80.80
2019-01-14T17:51:57.994Z,80.30
2019-01-14T17:54:54.897Z,80.30
2019-01-14T17:57:51.610Z,80.20
2019-01-14T18:00:38.689Z,80.30
2019-01-14T18:03:23.981Z,81.00
2019-01-14T18:06:18.063Z,80.10
2019-01-14T18:09:12.176Z,80.60
2019-01-14T18:12:06.674Z,80.40
2019-01-14T18:15:01.495Z,80.60
2019-01-14T18:17:46.711Z,80.40
2019-01-14T18:20:32.038Z,80.10
2019-01-14T18:23:25.457Z,80.50
2019-01-14T18:25:59.067Z,80.90
2019-01-14T18:28:32.880Z,80.40
2019-01-14T18:31:29.009Z,80.60
2019-01-14T18:34:14.329Z,79.50
2019-01-14T18:36:59.298Z,79.80
2019-01-14T18:39:44.618Z,80.20
2019-01-14T18:42:38.586Z,80.20
2019-01-14T18:45:38.532Z,80.20
2019-01-14T18:48:23.899Z,79.70
2019-01-14T18:51:17.890Z,79.60
2019-01-14T18:54:14.449Z,79.40
2019-01-14T18:57:01.656Z,78.60
2019-01-14T18:59:55.826Z,79.10
2019-01-14T19:02:51.878Z,79.10
2019-01-14T19:05:45.723Z,78.60
2019-01-14T19:08:30.937Z,78.20
2019-01-14T19:11:24.554Z,78.50
2019-01-14T19:14:09.261Z,78.10
2019-01-14T19:16:53.940Z,78.40
2019-01-14T19:19:39.698Z,78.10
2019-01-14T19:22:24.713Z,78.00
2019-01-14T19:25:09.818Z,78.40
2019-01-14T19:27:54.782Z,77.50
2019-01-14T19:30:39.700Z,77.10
2019-01-14T19:33:24.130Z,77.00
2019-01-14T19:36:09.458Z,77.30
2019-01-14T19:38:54.631Z,77.20
2019-01-14T19:41:49.358Z,77.30
2019-01-14T19:44:34.350Z,77.90
2019-01-14T19:47:28.294Z,78.10
2019-01-14T19:50:13.301Z,78.10
2019-01-14T19:52:59.528Z,77.40
2019-01-14T19:55:44.338Z,77.70
2019-01-14T19:58:28.957Z,77.90
2019-01-14T20:01:13.846Z,78.30
2019-01-14T20:03:58.101Z,78.10
2019-01-14T20:06:42.870Z,77.80
2019-01-14T20:09:27.505Z,76.30
2019-01-14T20:12:12.084Z,75.60
2019-01-14T20:15:05.956Z,75.90
2019-01-14T20:17:59.828Z,76.20
2019-01-14T20:20:45.684Z,75.20
2019-01-14T20:23:30.669Z,75.20
2019-01-14T20:26:15.242Z,74.70
2019-01-14T20:28:59.662Z,74.20
2019-01-14T20:31:53.225Z,74.50
2019-01-14T20:34:47.295Z,73.10
2019-01-14T20:37:43.722Z,73.30
2019-01-14T20:40:29.062Z,73.40
2019-01-14T20:43:23.076Z,72.90
2019-01-14T20:46:17.353Z,72.50
2019-01-14T20:49:11.653Z,72.70
2019-01-14T20:52:05.513Z,72.50
2019-01-14T20:54:59.450Z,72.90
2019-01-14T20:57:53.684Z,73.00
2019-01-14T21:00:48.033Z,73.10
2019-01-14T21:03:41.247Z,71.90
2019-01-14T21:06:44.921Z,73.10
2019-01-14T21:09:48.434Z,73.10
2019-01-14T21:12:42.098Z,73.40
2019-01-14T21:15:27.065Z,74.00
2019-01-14T21:18:20.937Z,73.90
2019-01-14T21:21:05.914Z,74.70
2019-01-14T21:24:00.042Z,74.70
2019-01-14T21:26:44.745Z,73.80
2019-01-14T21:29:29.901Z,73.80
2019-01-14T21:32:23.661Z,74.80
2019-01-14T21:35:08.429Z,75.30
2019-01-14T21:37:53.129Z,76.20
2019-01-14T21:40:37.889Z,76.50
2019-01-14T21:43:22.354Z,75.70
2019-01-14T21:46:07.569Z,77.00
2019-01-14T21:48:52.577Z,76.90
2019-01-14T21:51:46.379Z,77.40
2019-01-14T21:54:31.197Z,77.30
2019-01-14T21:57:16.400Z,78.20
2019-01-14T22:00:10.546Z,78.10
2019-01-14T22:03:04.329Z,78.70
2019-01-14T22:05:49.041Z,79.70
2019-01-14T22:08:33.625Z,80.10
2019-01-14T22:11:18.410Z,80.30
2019-01-14T22:14:03.149Z,80.50
2019-01-14T22:16:47.713Z,80.20
2019-01-14T22:19:33.173Z,80.10
2019-01-14T22:22:18.313Z,80.40
2019-01-14T22:25:11.694Z,80.90
2019-01-14T22:27:56.469Z,81.50
2019-01-14T22:30:41.850Z,81.20
2019-01-14T22:33:36.029Z,80.80
2019-01-14T22:36:30.429Z,80.60
2019-01-14T22:39:23.870Z,81.40
2019-01-14T22:42:08.809Z,83.00
2019-01-14T22:44:53.373Z,83.40
2019-01-14T22:47:37.877Z,84.20
2019-01-14T22:50:22.380Z,84.60
2019-01-14T22:53:06.773Z,83.90
2019-01-14T22:56:00.437Z,83.30
2019-01-14T22:58:45.405Z,83.60
2019-01-14T23:01:44.222Z,83.20
2019-01-14T23:04:29.509Z,82.10
2019-01-14T23:07:15.394Z,81.70
2019-01-14T23:10:00.863Z,80.60
2019-01-14T23:12:45.562Z,80.60
2019-01-14T23:15:39.274Z,79.80
2019-01-14T23:18:33.309Z,79.00
2019-01-14T23:21:26.948Z,79.30
2019-01-14T23:24:12.051Z,78.60
2019-01-14T23:26:57.022Z,79.50
2019-01-14T23:29:51.121Z,79.40
2019-01-14T23:32:45.334Z,80.10
2019-01-14T23:35:39.010Z,78.90
2019-01-14T23:38:23.969Z,78.50
2019-01-14T23:41:18.041Z,78.50
2019-01-14T23:44:12.466Z,78.70
2019-01-14T23:47:05.965Z,78.50
2019-01-14T23:49:50.751Z,78.50
2019-01-14T23:52:35.741Z,78.50
2019-01-14T23:55:20.172Z,78.10
2019-01-14T23:58:05.136Z,79.10
